Home > Products > Valid Products > MTR

000
SAUS46 KMTR 191356
MTRMHS
METAR KMHS 191356Z AUTO VRB04KT 10SM BKN024 OVC030 05/03 A3000 RMK
AO2 RAE47 SLP182 P0002 T00500033





000
SAUS46 KMTR 191256
MTRMHS
METAR KMHS 191256Z AUTO VRB04KT 9SM -RA FEW014 BKN026 OVC034 05/03
A3001 RMK AO2 SLP183 P0008 T00500033





000
SAUS46 KMTR 191219
MTRMHS
SPECI KMHS 191219Z AUTO 00000KT 8SM -RA BKN013 BKN019 OVC025 05/03
A3001 RMK AO2 P0002 T00500033





000
SAUS46 KMTR 191158
MTRMHS
METAR KMHS 191156Z AUTO VRB04KT 7SM -RA FEW015 BKN023 OVC032 05/03
A2999 RMK AO2 SLP178 P0008 60063 70075 T00500033 10050 20039 58009





000
SAUS46 KMTR 191057
MTRMHS
METAR KMHS 191056Z AUTO 11005KT 5SM RA BR SCT013 OVC024 04/03 A3001
RMK AO2 SLP183 P0017 T00440028





000
SAUS46 KMTR 190957
MTRMHS
METAR KMHS 190956Z AUTO 11004KT 4SM RA BR FEW013 OVC022 04/03 A3002
RMK AO2 SLP188 P0013 T00440028





000
SAUS46 KMTR 190957
MTRMHS
METAR KMHS 190956Z AUTO 11004KT 4SM RA BR FEW013 OVC022 04/03 A3002
RMK AO2 SLP188 P0013 T00440028





000
SAUS46 KMTR 190856
MTRMHS
METAR KMHS 190856Z AUTO VRB03KT 8SM -RA OVC015 04/03 A3002 RMK AO2
SLP188 P0005 60025 T00440028 58012





000
SAUS46 KMTR 190757
MTRMHS
METAR KMHS 190756Z AUTO VRB04KT 8SM -RA BKN017 OVC022 04/02 A3003
RMK AO2 SLP191 P0007 T00440022 400670022





000
SAUS46 KMTR 190657
MTRMHS
METAR KMHS 190656Z AUTO 12004KT 6SM RA BR FEW012 BKN021 OVC029 04/02
A3006 RMK AO2 SLP203 P0013 T00390022





000
SAUS46 KMTR 190557
MTRMHS
METAR KMHS 190556Z AUTO VRB04KT 7SM -RA SCT014 BKN023 OVC031 05/03
A3006 RMK AO2 SLP201 P0005 60012 T00500033 10050 20050 57004





000
SAUS46 KMTR 190457
MTRMHS
METAR KMHS 190456Z AUTO 13005KT 6SM -RA BR SCT016 OVC025 05/03 A3006
RMK AO2 SLP204 P0003 T00500033





000
SAUS46 KMTR 190356
MTRMHS
METAR KMHS 190356Z AUTO 00000KT 3SM -RA BR FEW003 OVC018 05/04 A3007
RMK AO2 SLP208 P0003 T00500039





000
SAUS46 KMTR 190356
MTRMHS
METAR KMHS 190356Z AUTO 00000KT 3SM -RA BR FEW003 OVC018 05/04 A3007
RMK AO2 SLP208 P0003 T00500039





000
SAUS46 KMTR 190328
MTRMHS
SPECI KMHS 190328Z AUTO 00000KT 3SM -RA BR FEW003 BKN017 OVC022
05/04 A3007 RMK AO2 P0001 T00500039





000
SAUS46 KMTR 190328
MTRMHS
SPECI KMHS 190328Z AUTO 00000KT 3SM -RA BR FEW003 BKN017 OVC022
05/04 A3007 RMK AO2 P0001 T00500039





000
SAUS46 KMTR 190323
MTRMHS
SPECI KMHS 190323Z AUTO 00000KT 2 1/2SM -RA BR BKN017 OVC022 05/04
A3007 RMK AO2 P0001 T00500039





000
SAUS46 KMTR 190257
MTRMHS
METAR KMHS 190256Z AUTO VRB03KT 5SM -RA BR SCT004 SCT011 OVC018
05/03 A3007 RMK AO2 RAB05E15B55 SLP209 P0001 60001 T00500033 58007





000
SAUS46 KMTR 190156
MTRMHS
METAR KMHS 190156Z AUTO 13004KT 4SM BR BKN020 OVC027 05/03 A3009 RMK
AO2 RAB30E41 SLP214 P0000 T00500033





000
SAUS46 KMTR 190156
MTRMHS
METAR KMHS 190156Z AUTO 13004KT 4SM BR BKN020 OVC027 05/03 A3009 RMK
AO2 RAB30E41 SLP214 P0000 T00500033





000
SAUS46 KMTR 190121
MTRMHS
SPECI KMHS 190121Z AUTO 13003KT 4SM BR FEW005 BKN022 OVC030 05/04
A3009 RMK AO2 T00500039





000
SAUS46 KMTR 190121
MTRMHS
SPECI KMHS 190121Z AUTO 13003KT 4SM BR FEW005 BKN022 OVC030 05/04
A3009 RMK AO2 T00500039





000
SAUS46 KMTR 190112
MTRMHS
SPECI KMHS 190112Z AUTO VRB03KT 6SM BR FEW006 SCT022 OVC031 05/03
A3009 RMK AO2 T00500033





000
SAUS46 KMTR 190105
MTRMHS
SPECI KMHS 190105Z AUTO 13003KT 9SM FEW006 BKN028 OVC033 05/03 A3009
RMK AO2 T00500033





000
SAUS46 KMTR 190056
MTRMHS
METAR KMHS 190056Z AUTO 14003KT 10SM FEW025 BKN029 OVC035 05/03
A3009 RMK AO2 SLP215 T00500033





000
SAUS46 KMTR 190021
MTRMHS
SPECI KMHS 190021Z AUTO VRB03KT 10SM FEW009 SCT023 OVC030 06/03
A3009 RMK AO2 T00560033





000
SAUS46 KMTR 190003
MTRMHS
SPECI KMHS 190003Z AUTO VRB03KT 10SM SCT008 BKN020 OVC027 06/03
A3009 RMK AO2 T00560033





000
SAUS46 KMTR 182357
MTRMHS
METAR KMHS 182356Z AUTO VRB03KT 10SM FEW011 SCT020 OVC025 06/03
A3010 RMK AO2 SLP219 T00560033 10067 20056 52003





000
SAUS46 KMTR 182353
MTRMHS
SPECI KMHS 182353Z AUTO VRB03KT 10SM FEW011 BKN023 OVC029 06/03
A3009 RMK AO2





000
SAUS46 KMTR 182257
MTRMHS
METAR KMHS 182256Z AUTO VRB03KT 10SM FEW009 OVC033 06/03 A3009 RMK
AO2 SLP215 T00610033





000
SAUS46 KMTR 182251
MTRMHS
SPECI KMHS 182251Z AUTO 12004KT 10SM FEW007 BKN033 OVC100 06/03
A3009 RMK AO2





000
SAUS46 KMTR 182156
MTRMHS
METAR KMHS 182156Z AUTO 13003KT 10SM OVC032 06/03 A3010 RMK AO2
SLP219 T00610033





000
SAUS46 KMTR 182106
MTRMHS
SPECI KMHS 182106Z AUTO 11005KT 10SM OVC029 07/03 A3009 RMK AO2
T00670033





000
SAUS46 KMTR 182014
MTRMHS
SPECI KMHS 182014Z AUTO 12004KT 10SM FEW008 SCT031 BKN090 06/03
A3011 RMK AO2 T00610033





000
SAUS46 KMTR 181958
MTRMHS
METAR KMHS 181956Z AUTO VRB03KT 10SM FEW027 BKN035 OVC090 07/03
A3012 RMK AO2 SLP222 T00670033





000
SAUS46 KMTR 181858
MTRMHS
METAR KMHS 181856Z AUTO 12003KT 10SM BKN029 OVC036 06/03 A3014 RMK
AO2 SLP232 T00560033





000
SAUS46 KMTR 181758
MTRMHS
METAR KMHS 181756Z AUTO 11003KT 10SM BKN029 OVC036 06/03 A3013 RMK
AO2 SLP229 T00560028 10056 20022 52015





000
SAUS46 KMTR 181725
MTRMHS
SPECI KMHS 181725Z AUTO VRB03KT 10SM OVC028 05/02 A3012 RMK AO2
T00500022





000
SAUS46 KMTR 181657
MTRMHS
METAR KMHS 181656Z AUTO 11003KT 10SM BKN034 BKN042 OVC090 04/02
A3011 RMK AO2 SLP222 T00440017





000
SAUS46 KMTR 181558
MTRMHS
METAR KMHS 181556Z AUTO VRB03KT 10SM FEW036 OVC048 04/02 A3010 RMK
AO2 SLP221 T00390017





000
SAUS46 KMTR 181458
MTRMHS
METAR KMHS 181456Z AUTO 00000KT 10SM OVC034 04/01 A3008 RMK AO2
SLP212 T00390011 53006





000
SAUS46 KMTR 181256
MTRMHS
METAR KMHS 181256Z AUTO 00000KT 10SM BKN037 OVC049 03/01 A3006 RMK
AO2 SLP207 T00330011





000
SAUS46 KMTR 181256
MTRMHS
METAR KMHS 181256Z AUTO 00000KT 10SM BKN037 OVC049 03/01 A3006 RMK
AO2 SLP207 T00330011





000
SAUS46 KMTR 181124
MTRMHS
SPECI KMHS 181124Z AUTO 00000KT 10SM BKN018 BKN031 OVC046 02/01
A3006 RMK AO2 T00220011





000
SAUS46 KMTR 181056
MTRMHS
METAR KMHS 181056Z AUTO 00000KT 10SM FEW016 BKN043 03/01 A3006 RMK
AO2 SLP205 T00280011





000
SAUS46 KMTR 181056
MTRMHS
METAR KMHS 181056Z AUTO 00000KT 10SM FEW016 BKN043 03/01 A3006 RMK
AO2 SLP205 T00280011





000
SAUS46 KMTR 181043
MTRMHS
SPECI KMHS 181043Z AUTO 00000KT 10SM BKN018 BKN029 BKN055 02/01
A3005 RMK AO2 T00220006





000
SAUS46 KMTR 181043
MTRMHS
SPECI KMHS 181043Z AUTO 00000KT 10SM BKN018 BKN029 BKN055 02/01
A3005 RMK AO2 T00220006





000
SAUS46 KMTR 180957
MTRMHS
METAR KMHS 180956Z AUTO VRB03KT 10SM FEW032 BKN043 OVC050 03/01
A3005 RMK AO2 SLP201 T00280011





000
SAUS46 KMTR 180856
MTRMHS
METAR KMHS 180856Z AUTO 11003KT 10SM OVC060 03/01 A3004 RMK AO2
SLP199 60001 T00280011 50007





000
SAUS46 KMTR 180856
MTRMHS
METAR KMHS 180856Z AUTO 11003KT 10SM OVC060 03/01 A3004 RMK AO2
SLP199 60001 T00280011 50007





000
SAUS46 KMTR 180815
MTRMHS
SPECI KMHS 180815Z AUTO 11004KT 10SM SCT029 OVC060 03/01 A3004 RMK
AO2 T00330011





000
SAUS46 KMTR 180815
MTRMHS
SPECI KMHS 180815Z AUTO 11004KT 10SM SCT029 OVC060 03/01 A3004 RMK
AO2 T00330011





000
SAUS46 KMTR 180757
MTRMHS
METAR KMHS 180756Z AUTO 09007KT 10SM BKN029 OVC048 03/01 A3004 RMK
AO2 SLP198 T00330011 400560022





000
SAUS46 KMTR 180757
MTRMHS
METAR KMHS 180756Z AUTO 09007KT 10SM BKN029 OVC048 03/01 A3004 RMK
AO2 SLP198 T00330011 400560022





000
SAUS46 KMTR 180739
MTRMHS
SPECI KMHS 180739Z AUTO 10005KT 10SM BKN029 OVC060 03/01 A3004 RMK
AO2 T00330011





000
SAUS46 KMTR 180739
MTRMHS
SPECI KMHS 180739Z AUTO 10005KT 10SM BKN029 OVC060 03/01 A3004 RMK
AO2 T00330011





000
SAUS46 KMTR 180723
MTRMHS
SPECI KMHS 180723Z AUTO VRB04KT 10SM BKN029 OVC060 03/01 A3004 RMK
AO2 T00280011





000
SAUS46 KMTR 180656
MTRMHS
METAR KMHS 180656Z AUTO 11003KT 10SM FEW031 OVC060 03/01 A3003 RMK
AO2 RAE14B30E50 SLP193 P0001 T00330011





000
SAUS46 KMTR 180556
MTRMHS
METAR KMHS 180556Z AUTO VRB03KT 10SM -RA OVC037 03/02 A3002 RMK AO2
SLP191 P0001 60005 T00330017 10050 20033 53013





000
SAUS46 KMTR 180525
MTRMHS
SPECI KMHS 180525Z AUTO VRB04KT 10SM -RA FEW015 BKN034 OVC041 03/02
A3001 RMK AO2 P0000 T00330017





000
SAUS46 KMTR 180456
MTRMHS
METAR KMHS 180456Z AUTO VRB03KT 8SM -RA SCT017 OVC024 04/02 A3000
RMK AO2 SLP186 P0003 T00390022





000
SAUS46 KMTR 180356
MTRMHS
METAR KMHS 180356Z AUTO 13003KT 10SM -RA FEW022 SCT030 OVC038 04/02
A2998 RMK AO2 RAB05 SLP179 P0001 T00390022





000
SAUS46 KMTR 180356
MTRMHS
METAR KMHS 180356Z AUTO 13003KT 10SM -RA FEW022 SCT030 OVC038 04/02
A2998 RMK AO2 RAB05 SLP179 P0001 T00390022





000
SAUS46 KMTR 180257
MTRMHS
METAR KMHS 180256Z AUTO 09004KT 10SM SCT034 OVC050 04/03 A2997 RMK
AO2 RAB21E45 SLP176 P0000 60000 T00440028 53015





000
SAUS46 KMTR 180239
MTRMHS
SPECI KMHS 180239Z AUTO VRB03KT 10SM -RA FEW014 BKN033 OVC044 04/03
A2997 RMK AO2 RAB21 P0000 T00440028





000
SAUS46 KMTR 180158
MTRMHS
METAR KMHS 180156Z AUTO 10004KT 10SM FEW032 BKN065 OVC080 04/02
A2995 RMK AO2 SLP168 T00440022





000
SAUS46 KMTR 180158
MTRMHS
METAR KMHS 180156Z AUTO 10004KT 10SM FEW032 BKN065 OVC080 04/02
A2995 RMK AO2 SLP168 T00440022





000
SAUS46 KMTR 180100
MTRMHS
SPECI KMHS 180100Z AUTO VRB03KT 10SM FEW008 SCT016 OVC070 04/03
A2994 RMK AO2 T00440028





000
SAUS46 KMTR 180056
MTRMHS
METAR KMHS 180056Z AUTO 00000KT 10SM SCT010 BKN020 OVC075 04/03
A2994 RMK AO2 RAE11 SLP163 P0000 T00440028





000
SAUS46 KMTR 180045
MTRMHS
SPECI KMHS 180043Z AUTO VRB03KT 10SM SCT008 BKN016 OVC041 04/03
A2994 RMK AO2 RAE11 P0000 T00440028





000
SAUS46 KMTR 172324
MTRMHS
SPECI KMHS 172324Z AUTO 00000KT 5SM -RA BR FEW005 SCT015 OVC021
05/04 A2992 RMK AO2 P0001 T00500039





000
SAUS46 KMTR 172256
MTRMHS
METAR KMHS 172256Z AUTO 00000KT 5SM -RA BR OVC023 05/03 A2991 RMK
AO2 RAB36 SLP154 P0001 T00500033





000
SAUS46 KMTR 172218
MTRMHS
SPECI KMHS 172218Z AUTO VRB03KT 10SM SCT014 BKN026 OVC033 06/03
A2990 RMK AO2 T00560033





000
SAUS46 KMTR 172207
MTRMHS
SPECI KMHS 172206Z AUTO VRB03KT 10SM FEW007 BKN012 OVC031 06/03
A2989 RMK AO2 T00560033





000
SAUS46 KMTR 172127
MTRMHS
SPECI KMHS 172126Z AUTO VRB05KT 10SM BKN009 BKN019 OVC100 05/03
A2990 RMK AO2 T00500033





000
SAUS46 KMTR 172121
MTRMHS
SPECI KMHS 172121Z AUTO 10003KT 10SM SCT008 BKN019 OVC110 06/03
A2991 RMK AO2 T00560033





000
SAUS46 KMTR 171856
MTRMHS
METAR KMHS 171856Z AUTO 00000KT 10SM -RA FEW018 BKN036 OVC055 05/03
A2992 RMK AO2 RAB29 SLP155 P0001 T00500033





000
SAUS46 KMTR 171825
MTRMHS
SPECI KMHS 171823Z AUTO VRB04KT 9SM FEW018 BKN050 OVC070 04/03 A2993
RMK AO2 T00440028





000
SAUS46 KMTR 171811
MTRMHS
SPECI KMHS 171811Z AUTO VRB03KT 8SM SCT018 BKN023 OVC042 04/03 A2993
RMK AO2 T00440028





000
SAUS46 KMTR 171719
MTRMHS
SPECI KMHS 171719Z AUTO 11003KT 10SM SCT021 OVC028 04/02 A2992 RMK
AO2 T00390022





000
SAUS46 KMTR 171539
MTRMHS
SPECI KMHS 171538Z AUTO 00000KT 10SM FEW023 SCT028 OVC039 03/02
A2989 RMK AO2 RAE18 P0000 T00330017





000
SAUS46 KMTR 171527
MTRMHS
SPECI KMHS 171526Z AUTO 00000KT 10SM BKN025 OVC030 03/02 A2989 RMK
AO2 RAE18 P0000 T00330017





000
SAUS46 KMTR 171456
MTRMHS
METAR KMHS 171456Z AUTO 13003KT 10SM -RA FEW030 SCT036 OVC045 03/02
A2988 RMK AO2 UPB1359E04 SLP143 P0002 60004 T00330017 53014





000
SAUS46 KMTR 171417
MTRMHS
SPECI KMHS 171416Z AUTO 00000KT 8SM -RA SCT022 BKN033 OVC041 03/02
A2987 RMK AO2 UPB1359E04 P0001 T00280017





000
SAUS46 KMTR 171356
MTRMHS
METAR KMHS 171356Z AUTO 00000KT 10SM -RA BKN022 OVC027 03/02 A2986
RMK AO2 UPB19E28RAB30 SLP137 P0001 T00280017





000
SAUS46 KMTR 171345
MTRMHS
SPECI KMHS 171345Z AUTO 00000KT 10SM -RA BKN023 OVC029 03/02 A2985
RMK AO2 UPB19E28RAB30 P0000 T00280017





000
SAUS46 KMTR 171324
MTRMHS
SPECI KMHS 171324Z AUTO 00000KT 10SM UP OVC027 03/02 A2985 RMK AO2
UPB19 P0000 T00330017





000
SAUS46 KMTR 171258
MTRMHS
METAR KMHS 171256Z AUTO 00000KT 10SM OVC030 03/02 A2984 RMK AO2
RAE1158UPB1158E30 SLP131 P0001 T00280017





000
SAUS46 KMTR 171207
MTRMHS
SPECI KMHS 171207Z AUTO 00000KT 10SM UP FEW004 OVC031 02/01 A2984
RMK AO2 RAE1158UPB1158 P0001 T00220011





000
SAUS46 KMTR 171157
MTRMHS
METAR KMHS 171156Z AUTO 00000KT 8SM -RA OVC030 02/01 A2983 RMK AO2
UPE48RAB48 SLP128 P0001 60017 70090 T00220011 10033 20022 51007





000
SAUS46 KMTR 171139
MTRMHS
SPECI KMHS 171139Z AUTO 22004KT 10SM UP OVC030 02/01 A2984 RMK AO2
P0001 T00220011





000
SAUS46 KMTR 171057
MTRMHS
METAR KMHS 171056Z AUTO 00000KT 7SM UP OVC027 03/02 A2983 RMK AO2
RAB35E41 SLP127 P0002 T00280017





000
SAUS46 KMTR 170958
MTRMHS
METAR KMHS 170956Z AUTO 00000KT 10SM UP OVC027 03/02 A2982 RMK AO2
SLP121 P0000 T00280017





000
SAUS46 KMTR 170856
MTRMHS
METAR KMHS 170856Z AUTO 00000KT 10SM UP FEW018 OVC026 03/02 A2981
RMK AO2 RAE41UPB41 SLP119 P0003 60014 T00280017 50004





000
SAUS46 KMTR 170856
MTRMHS
METAR KMHS 170856Z AUTO 00000KT 10SM UP FEW018 OVC026 03/02 A2981
RMK AO2 RAE41UPB41 SLP119 P0003 60014 T00280017 50004





000
SAUS46 KMTR 170758
MTRMHS
METAR KMHS 170756Z AUTO 00000KT 8SM -RA OVC023 03/02 A2982 RMK AO2
SLP123 P0007 T00330022 400500006





000
SAUS46 KMTR 170758
MTRMHS
METAR KMHS 170756Z AUTO 00000KT 8SM -RA OVC023 03/02 A2982 RMK AO2
SLP123 P0007 T00330022 400500006





000
SAUS46 KMTR 170657
MTRMHS
METAR KMHS 170656Z AUTO 13003KT 6SM -RA BR OVC022 03/02 A2981 RMK
AO2 SLP120 P0004 T00330017





000
SAUS46 KMTR 170558
MTRMHS
METAR KMHS 170556Z AUTO VRB03KT 8SM -RA SCT016 OVC020 03/02 A2980
RMK AO2 SLP117 P0005 60049 T00280017 10044 20028 51006





000
SAUS46 KMTR 170456
MTRMHS
METAR KMHS 170456Z AUTO 14004KT 9SM -RA SCT008 BKN016 OVC020 03/02
A2979 RMK AO2 SLP112 P0008 T00330022





000
SAUS46 KMTR 170456
MTRMHS
METAR KMHS 170456Z AUTO 14004KT 9SM -RA SCT008 BKN016 OVC020 03/02
A2979 RMK AO2 SLP112 P0008 T00330022





000
SAUS46 KMTR 170436
MTRMHS
SPECI KMHS 170436Z AUTO VRB04KT 8SM -RA BKN009 OVC018 03/02 A2978
RMK AO2 P0006 T00330022





000
SAUS46 KMTR 170417
MTRMHS
SPECI KMHS 170416Z AUTO VRB03KT 6SM RA BR BKN009 OVC019 04/02 A2978
RMK AO2 P0004 T00390022





000
SAUS46 KMTR 170403
MTRMHS
SPECI KMHS 170403Z AUTO 13005KT 6SM -RA BR SCT009 OVC017 04/02 A2978
RMK AO2 P0002 T00390022





000
SAUS46 KMTR 170403
MTRMHS
SPECI KMHS 170403Z AUTO 13005KT 6SM -RA BR SCT009 OVC017 04/02 A2978
RMK AO2 P0002 T00390022





000
SAUS46 KMTR 170258
MTRMHS
METAR KMHS 170256Z AUTO 13004KT 7SM RA OVC021 04/02 A2976 RMK AO2
SLP103 P0007 60024 T00390022 58005





000
SAUS46 KMTR 170156
MTRMHS
METAR KMHS 170156Z AUTO 12004KT 10SM -RA SCT016 OVC023 04/02 A2977
RMK AO2 SLP106 P0011 T00390022





000
SAUS46 KMTR 170056
MTRMHS
METAR KMHS 170056Z AUTO 00000KT 5SM -RA BR OVC018 04/02 A2978 RMK
AO2 SLP110 P0006 T00390022





000
SAUS46 KMTR 162356
MTRMHS
METAR KMHS 162356Z AUTO VRB03KT 5SM RA BR OVC022 04/02 A2978 RMK AO2
SLP110 P0004 60018 T00390017 10050 20028 56009





000
SAUS46 KMTR 162256
MTRMHS
METAR KMHS 162256Z AUTO VRB04KT 8SM -RA FEW023 BKN028 OVC032 04/02
A2978 RMK AO2 SLP112 P0003 T00440022





000
SAUS46 KMTR 162249
MTRMHS
SPECI KMHS 162249Z AUTO VRB06KT 9SM -RA FEW023 OVC028 04/02 A2978
RMK AO2 P0002 T00440022





000
SAUS46 KMTR 162239
MTRMHS
SPECI KMHS 162239Z AUTO 13004KT 10SM -RA FEW023 OVC030 04/02 A2978
RMK AO2 P0002 T00440022





000
SAUS46 KMTR 162156
MTRMHS
METAR KMHS 162156Z AUTO VRB04KT 10SM -RA SCT020 OVC027 05/02 A2980
RMK AO2 SLP115 P0003 T00500022





000
SAUS46 KMTR 162056
MTRMHS
METAR KMHS 162056Z AUTO VRB04KT 9SM -RA FEW022 BKN027 OVC033 04/02
A2981 RMK AO2 SLP121 P0002 60008 T00440022 58019





000
SAUS46 KMTR 161956
MTRMHS
METAR KMHS 161956Z AUTO VRB03KT 7SM -RA BKN023 OVC028 04/02 A2984
RMK AO2 SLP132 P0004 T00440022





000
SAUS46 KMTR 161856
MTRMHS
METAR KMHS 161856Z AUTO VRB03KT 9SM -RA BKN023 OVC032 04/02 A2986
RMK AO2 UPE06RAB06 SLP137 P0002 T00440022





000
SAUS46 KMTR 161756
MTRMHS
METAR KMHS 161756Z AUTO VRB03KT 10SM UP BKN018 OVC026 03/02 A2987
RMK AO2 RAE51UPB54 SLP145 P0004 60006 T00280017 10039 20011 53003





000
SAUS46 KMTR 161608
MTRMHS
SPECI KMHS 161606Z AUTO 00000KT 10SM FEW022 BKN027 OVC080 03/01
A2986 RMK AO2 T00280011





000
SAUS46 KMTR 161556
MTRMHS
METAR KMHS 161556Z AUTO 00000KT 9SM FEW022 SCT029 OVC080 03/01 A2986
RMK AO2 UPE25 SLP141 P0000 T00280011





000
SAUS46 KMTR 161556
MTRMHS
METAR KMHS 161556Z AUTO 00000KT 9SM FEW022 SCT029 OVC080 03/01 A2986
RMK AO2 UPE25 SLP141 P0000 T00280011





000
SAUS46 KMTR 161546
MTRMHS
SPECI KMHS 161546Z AUTO 00000KT 10SM FEW016 OVC080 03/01 A2986 RMK
AO2 UPE25 P0000 T00280011





000
SAUS46 KMTR 161456
MTRMHS
METAR KMHS 161456Z AUTO VRB03KT 10SM UP BKN019 BKN026 OVC075 02/01
A2986 RMK AO2 UPB39 SLP141 P0000 60000 T00220006 53001





000
SAUS46 KMTR 161434
MTRMHS
SPECI KMHS 161433Z AUTO 00000KT 3SM BR FEW006 BKN018 BKN025 01/00
A2987 RMK AO2 T00110000





    US Dept of Commerce
    National Oceanic and Atmospheric Administration
    National Weather Service
    1325 East West Highway
    Silver Spring, MD 20910
    Page Author: NWS Internet Services Team
Disclaimer
Information Quality
Credits
Glossary
Privacy Policy
Freedom of Information Act (FOIA)
About Us
Career Opportunities